Time;durP1;ratioP1;P1;durP2;ratioP2;P2;SDS_P1;SDS_P2;PMS_P1;PMS_P2;Temp;Humidity;BMP_temperature;BMP_pressure;BME280_temperature;BME280_humidity;BME280_pressure;Samples;Min_cycle;Max_cycle;Signal;HPM_P1;HPM_P2
2020/12/01 00:00:15;;;;;;;2.42;1.30;;;20.70;44.60;;;;;;6295558;28;20407;-61
2020/12/01 00:03:16;;;;;;;1.98;1.38;;;20.70;44.60;;;;;;6296611;28;20032;-58
2020/12/01 00:06:16;;;;;;;1.90;1.17;;;20.70;44.60;;;;;;6275962;28;20047;-58
2020/12/01 00:09:16;;;;;;;2.20;1.20;;;20.70;44.60;;;;;;6270189;28;20115;-58
2020/12/01 00:12:17;;;;;;;2.40;1.17;;;20.70;44.60;;;;;;6271540;28;20057;-58
2020/12/01 00:15:21;;;;;;;1.85;1.20;;;20.70;44.60;;;;;;6271145;28;20025;-60
2020/12/01 00:18:22;;;;;;;1.58;1.15;;;20.70;44.70;;;;;;6269925;28;20108;-60
2020/12/01 00:21:23;;;;;;;3.80;1.38;;;20.70;44.70;;;;;;6270329;28;20032;-59
2020/12/01 00:24:23;;;;;;;2.08;1.23;;;20.70;44.70;;;;;;6271470;28;20029;-60
2020/12/01 00:27:24;;;;;;;1.38;1.05;;;20.60;44.60;;;;;;6270719;28;20032;-53
2020/12/01 00:30:26;;;;;;;1.25;0.95;;;20.70;44.70;;;;;;6270899;28;20036;-59
2020/12/01 00:33:27;;;;;;;2.28;1.30;;;20.70;44.70;;;;;;6270673;28;20021;-59
2020/12/01 00:36:27;;;;;;;1.65;1.10;;;20.70;44.70;;;;;;6285213;28;20036;-63
2020/12/01 00:39:28;;;;;;;1.88;1.20;;;20.60;44.60;;;;;;6295890;28;20017;-59
2020/12/01 00:42:28;;;;;;;1.48;1.00;;;20.60;44.60;;;;;;6295061;28;20025;-58
2020/12/01 00:45:29;;;;;;;1.08;0.90;;;20.60;44.60;;;;;;6295485;28;20037;-59
2020/12/01 00:48:29;;;;;;;1.20;1.02;;;20.60;44.60;;;;;;6294843;28;20035;-61
2020/12/01 00:51:29;;;;;;;1.45;0.98;;;20.60;44.60;;;;;;6273945;28;20029;-59
2020/12/01 00:54:30;;;;;;;1.77;1.30;;;20.60;44.70;;;;;;6270161;28;20029;-63
2020/12/01 00:57:30;;;;;;;1.13;0.90;;;20.60;44.70;;;;;;6291497;28;20025;-63
2020/12/01 01:00:31;;;;;;;1.27;0.98;;;20.60;44.70;;;;;;6294474;28;20028;-60
2020/12/01 01:03:32;;;;;;;1.67;1.10;;;20.60;44.70;;;;;;6294593;28;20024;-58
2020/12/01 01:06:32;;;;;;;1.48;1.08;;;20.60;44.70;;;;;;6295109;28;20060;-63
2020/12/01 01:09:32;;;;;;;1.38;0.98;;;20.60;44.70;;;;;;6293161;28;20021;-61
2020/12/01 01:12:34;;;;;;;1.58;1.08;;;20.60;45.50;;;;;;6294842;28;20052;-63
2020/12/01 01:15:35;;;;;;;1.80;1.10;;;20.60;44.80;;;;;;6294559;28;20025;-62
2020/12/01 01:18:35;;;;;;;1.10;0.88;;;20.60;44.80;;;;;;6294714;28;20537;-59
2020/12/01 01:21:49;;;;;;;1.52;1.02;;;20.50;44.70;;;;;;6294369;28;20465;-60
2020/12/01 01:24:49;;;;;;;1.38;0.98;;;20.60;44.80;;;;;;6294586;28;20040;-59
2020/12/01 01:27:50;;;;;;;1.50;1.17;;;20.60;44.80;;;;;;6293113;28;20482;-60
2020/12/01 01:30:50;;;;;;;2.30;1.20;;;20.60;44.80;;;;;;6294607;28;20363;-59
2020/12/01 01:33:51;;;;;;;1.75;1.10;;;20.60;44.80;;;;;;6294376;28;20042;-62
2020/12/01 01:36:51;;;;;;;1.30;1.00;;;20.50;44.70;;;;;;6294859;28;20184;-61
2020/12/01 01:39:52;;;;;;;2.00;1.10;;;20.50;44.80;;;;;;6296345;28;20021;-60
2020/12/01 01:42:52;;;;;;;1.30;1.08;;;20.50;44.90;;;;;;6302471;28;20098;-58
2020/12/01 01:45:53;;;;;;;1.98;0.95;;;20.50;44.80;;;;;;6302912;28;20154;-62
2020/12/01 01:48:53;;;;;;;1.98;1.10;;;20.50;44.90;;;;;;6300440;28;20071;-62
2020/12/01 01:51:56;;;;;;;1.63;1.20;;;20.50;44.80;;;;;;6294463;28;20036;-62
2020/12/01 01:55:14;;;;;;;1.42;1.00;;;20.50;44.90;;;;;;6294863;28;20085;-58
2020/12/01 01:58:17;;;;;;;1.48;1.00;;;20.50;44.90;;;;;;6269875;28;20437;-59
2020/12/01 02:01:21;;;;;;;1.63;1.00;;;20.50;44.90;;;;;;6273902;28;20024;-57
2020/12/01 02:04:22;;;;;;;1.30;1.15;;;20.50;45.00;;;;;;6293140;28;20028;-57
2020/12/01 02:07:22;;;;;;;1.52;1.08;;;20.50;44.90;;;;;;6294950;28;20021;-57
2020/12/01 02:10:23;;;;;;;1.42;0.93;;;20.50;44.90;;;;;;6298757;28;20102;-60
2020/12/01 02:13:35;;;;;;;1.13;0.98;;;20.50;45.00;;;;;;6299297;28;20028;-61
2020/12/01 02:16:39;;;;;;;1.30;1.00;;;20.50;45.00;;;;;;6306152;28;20024;-61
2020/12/01 02:19:39;;;;;;;1.15;1.00;;;20.40;44.90;;;;;;6300687;28;20044;-59
2020/12/01 02:22:45;;;;;;;1.48;0.90;;;20.50;45.00;;;;;;6298594;28;20060;-60
2020/12/01 02:25:46;;;;;;;1.42;1.13;;;20.50;44.90;;;;;;6298410;28;20025;-62
2020/12/01 02:28:46;;;;;;;1.08;0.95;;;20.50;45.00;;;;;;6298256;28;20066;-58
2020/12/01 02:31:47;;;;;;;2.22;1.17;;;20.40;45.00;;;;;;6298305;28;20056;-62
2020/12/01 02:34:48;;;;;;;2.50;1.08;;;20.40;45.00;;;;;;6298981;28;20364;-59
2020/12/01 02:37:48;;;;;;;1.02;0.90;;;20.40;45.00;;;;;;6298253;28;20368;-60
2020/12/01 02:40:49;;;;;;;0.95;0.73;;;20.40;44.90;;;;;;6297846;28;20032;-62
2020/12/01 02:43:49;;;;;;;1.15;0.90;;;20.40;45.00;;;;;;6298061;28;20024;-59
2020/12/01 02:46:50;;;;;;;1.17;0.95;;;20.40;45.00;;;;;;6297742;28;20036;-58
2020/12/01 02:49:50;;;;;;;1.48;1.10;;;20.40;45.00;;;;;;6298477;28;20111;-60
2020/12/01 02:52:51;;;;;;;1.77;1.20;;;20.40;45.00;;;;;;6297460;28;20020;-59
2020/12/01 02:55:51;;;;;;;1.33;0.88;;;20.40;45.10;;;;;;6290177;28;20029;-62
2020/12/01 02:58:52;;;;;;;1.60;1.25;;;20.40;45.00;;;;;;6292382;28;20039;-62
2020/12/01 03:01:52;;;;;;;1.25;1.05;;;20.40;45.00;;;;;;6297476;28;20024;-60
2020/12/01 03:04:53;;;;;;;4.32;1.25;;;20.40;45.10;;;;;;6297540;28;20086;-59
2020/12/01 03:07:53;;;;;;;1.08;0.93;;;20.40;45.10;;;;;;6297372;28;20046;-61
2020/12/01 03:10:54;;;;;;;1.00;0.73;;;20.40;45.10;;;;;;6297781;28;20021;-61
2020/12/01 03:13:54;;;;;;;1.23;0.93;;;20.40;45.10;;;;;;6297183;28;20281;-62
2020/12/01 03:16:55;;;;;;;1.00;0.90;;;20.40;45.10;;;;;;6297183;28;20109;-62
2020/12/01 03:19:55;;;;;;;1.65;1.17;;;20.40;45.00;;;;;;6318518;22;20033;-62
2020/12/01 03:22:56;;;;;;;1.60;0.93;;;20.40;45.10;;;;;;6271776;28;20041;-62
2020/12/01 03:25:57;;;;;;;1.58;1.05;;;20.40;45.10;;;;;;6272221;28;20033;-62
2020/12/01 03:28:57;;;;;;;2.00;1.20;;;20.40;45.10;;;;;;6271835;28;20033;-62
2020/12/01 03:31:58;;;;;;;1.50;1.00;;;20.40;45.10;;;;;;6272153;28;20040;-62
2020/12/01 03:34:59;;;;;;;1.52;1.00;;;20.40;45.20;;;;;;6271600;28;20548;-62
2020/12/01 03:37:59;;;;;;;1.08;0.88;;;20.30;45.10;;;;;;6271880;28;20479;-62
2020/12/01 03:41:00;;;;;;;2.03;1.08;;;20.30;45.10;;;;;;6270758;28;20029;-62
2020/12/01 03:44:01;;;;;;;1.13;0.90;;;20.40;45.30;;;;;;6272643;28;20033;-62
2020/12/01 03:47:01;;;;;;;1.50;0.98;;;20.40;45.20;;;;;;6272493;28;20025;-62
2020/12/01 03:50:05;;;;;;;1.15;0.98;;;20.30;45.10;;;;;;6270550;28;20062;-62
2020/12/01 03:53:05;;;;;;;1.10;0.90;;;20.30;45.10;;;;;;6271195;28;20407;-62
2020/12/01 03:56:06;;;;;;;1.08;0.93;;;20.30;45.20;;;;;;6270439;28;20028;-62
2020/12/01 03:59:07;;;;;;;1.55;1.20;;;20.30;45.20;;;;;;6272259;28;20029;-62
2020/12/01 04:02:07;;;;;;;1.30;1.13;;;20.30;45.20;;;;;;6271015;28;20033;-62
2020/12/01 04:05:09;;;;;;;1.33;1.05;;;20.30;45.20;;;;;;6271358;28;20024;-63
2020/12/01 04:08:10;;;;;;;1.13;1.00;;;20.30;45.30;;;;;;6271049;28;20098;-62
2020/12/01 04:11:11;;;;;;;1.08;0.90;;;20.30;45.20;;;;;;6270996;28;20017;-62
2020/12/01 04:14:11;;;;;;;1.10;1.00;;;20.30;45.30;;;;;;6271065;28;20051;-62
2020/12/01 04:17:12;;;;;;;1.13;1.02;;;20.30;45.90;;;;;;6271095;28;20422;-62
2020/12/01 04:20:13;;;;;;;1.05;0.82;;;20.30;45.20;;;;;;6270808;28;20445;-63
2020/12/01 04:23:14;;;;;;;1.00;0.90;;;20.30;45.20;;;;;;6271181;28;20107;-62
2020/12/01 04:26:14;;;;;;;2.33;1.20;;;20.30;45.20;;;;;;6270970;28;20037;-62
2020/12/01 04:29:15;;;;;;;1.35;1.10;;;20.30;45.30;;;;;;6270034;28;20112;-62
2020/12/01 04:32:15;;;;;;;0.98;0.70;;;20.30;45.30;;;;;;6282857;28;20174;-62
2020/12/01 04:35:17;;;;;;;1.10;1.00;;;20.30;45.30;;;;;;6295399;28;20028;-62
2020/12/01 04:38:17;;;;;;;1.17;1.00;;;20.30;45.30;;;;;;6295287;28;20509;-62
2020/12/01 04:41:18;;;;;;;1.60;1.02;;;20.30;45.30;;;;;;6295132;28;20025;-63
2020/12/01 04:44:33;;;;;;;1.15;1.05;;;20.30;45.30;;;;;;6295523;28;20032;-62
2020/12/01 04:47:45;;;;;;;1.50;1.13;;;20.30;45.30;;;;;;6294945;28;20024;-62
2020/12/01 04:50:56;;;;;;;1.35;1.08;;;20.30;45.30;;;;;;6295398;28;20032;-62
2020/12/01 04:54:21;;;;;;;1.15;0.95;;;20.30;45.30;;;;;;6294655;28;20025;-62
2020/12/01 04:58:06;;;;;;;1.20;1.00;;;20.30;45.40;;;;;;6275148;28;20029;-62
2020/12/01 05:01:26;;;;;;;1.75;1.23;;;20.30;45.40;;;;;;6270369;28;20032;-63
2020/12/01 05:04:33;;;;;;;1.10;0.95;;;20.30;45.30;;;;;;6269915;28;20089;-63
2020/12/01 05:07:57;;;;;;;4.53;1.20;;;20.30;45.40;;;;;;6270220;28;20020;-62
2020/12/01 05:11:37;;;;;;;1.27;1.08;;;20.20;45.30;;;;;;6269889;28;20116;-62
2020/12/01 05:14:53;;;;;;;1.50;1.17;;;20.30;45.30;;;;;;6267751;28;20079;-62
2020/12/01 05:18:12;;;;;;;1.77;1.30;;;20.30;45.30;;;;;;6269974;28;20032;-62
2020/12/01 05:21:14;;;;;;;1.52;1.20;;;20.30;45.30;;;;;;6268387;28;20358;-61
2020/12/01 05:24:14;;;;;;;1.00;0.90;;;20.30;45.30;;;;;;6270176;28;20033;-62
2020/12/01 05:27:25;;;;;;;1.15;1.05;;;20.30;45.30;;;;;;6269701;28;20087;-62
2020/12/01 05:30:26;;;;;;;1.30;1.00;;;20.40;45.40;;;;;;6269425;28;20028;-62
2020/12/01 05:33:29;;;;;;;1.67;1.20;;;20.40;45.40;;;;;;6269492;28;20021;-62
2020/12/01 05:36:37;;;;;;;1.35;1.08;;;20.40;45.40;;;;;;6270142;28;20032;-62
2020/12/01 05:39:38;;;;;;;1.45;1.10;;;20.30;45.30;;;;;;6269258;28;20052;-62
2020/12/01 05:42:44;;;;;;;1.70;1.10;;;20.40;45.40;;;;;;6274482;28;20047;-62
2020/12/01 05:45:45;;;;;;;1.33;1.13;;;20.30;45.30;;;;;;6274559;28;20524;-62
2020/12/01 05:49:21;;;;;;;1.25;1.13;;;20.40;45.40;;;;;;6273371;28;20017;-62
2020/12/01 05:52:45;;;;;;;1.20;1.10;;;20.40;45.50;;;;;;6252747;28;20401;-62
2020/12/01 05:56:00;;;;;;;1.65;1.33;;;20.40;45.50;;;;;;6274885;28;20364;-63
2020/12/01 05:59:05;;;;;;;1.52;1.10;;;20.40;45.60;;;;;;6274637;28;20033;-62
2020/12/01 06:02:07;;;;;;;0.98;0.90;;;20.40;45.50;;;;;;6273941;28;20040;-63
2020/12/01 06:05:12;;;;;;;1.33;1.10;;;20.40;45.60;;;;;;6274331;28;20043;-62
2020/12/01 06:08:40;;;;;;;1.75;1.30;;;20.40;45.60;;;;;;6274596;28;20053;-63
2020/12/01 06:11:49;;;;;;;1.00;0.70;;;20.40;45.50;;;;;;6273742;28;20021;-63
2020/12/01 06:14:58;;;;;;;1.08;0.90;;;20.50;45.20;;;;;;6274504;28;20387;-63
2020/12/01 06:18:05;;;;;;;1.48;1.17;;;20.70;45.20;;;;;;6273901;28;20056;-63
2020/12/01 06:21:08;;;;;;;1.40;1.13;;;20.80;45.40;;;;;;6273318;28;20033;-63
2020/12/01 06:24:39;;;;;;;1.50;1.15;;;20.80;45.70;;;;;;6291435;28;20025;-63
2020/12/01 06:28:22;;;;;;;1.38;1.10;;;20.90;45.50;;;;;;6298815;28;20081;-63
2020/12/01 06:31:59;;;;;;;1.35;0.93;;;20.90;45.30;;;;;;6298476;28;20020;-63
2020/12/01 06:35:55;;;;;;;1.00;0.90;;;21.00;45.50;;;;;;6298557;28;20020;-63
2020/12/01 06:39:14;;;;;;;1.27;1.10;;;21.00;45.40;;;;;;6285063;28;20060;-63
2020/12/01 06:42:31;;;;;;;2.25;1.27;;;21.00;45.40;;;;;;6298354;28;20097;-63
2020/12/01 06:45:40;;;;;;;1.45;1.15;;;21.00;45.40;;;;;;6298542;28;20108;-63
2020/12/01 06:48:44;;;;;;;1.45;1.00;;;21.10;45.30;;;;;;6297956;28;20084;-63
2020/12/01 06:51:51;;;;;;;2.30;1.20;;;21.10;45.30;;;;;;6297233;28;20417;-63
2020/12/01 06:54:55;;;;;;;4.13;1.00;;;21.10;45.30;;;;;;6297960;28;20036;-64
2020/12/01 06:58:06;;;;;;;1.52;1.10;;;21.10;45.30;;;;;;6273223;28;20036;-64
2020/12/01 07:01:18;;;;;;;8.90;4.10;;;21.20;45.40;;;;;;6258896;28;20041;-64
2020/12/01 07:04:21;;;;;;;17.30;13.07;;;21.00;43.40;;;;;;6266145;28;20020;-62
2020/12/01 07:07:30;;;;;;;22.15;15.90;;;20.80;40.80;;;;;;6283737;28;20058;-63
2020/12/01 07:10:32;;;;;;;24.45;17.45;;;20.70;38.00;;;;;;6262787;28;20029;-64
2020/12/01 07:13:51;;;;;;;25.08;18.08;;;20.70;36.50;;;;;;6294744;28;20041;-65
2020/12/01 07:16:52;;;;;;;31.40;19.40;;;20.60;34.90;;;;;;6291391;28;20029;-65
2020/12/01 07:20:28;;;;;;;26.05;18.02;;;20.60;34.00;;;;;;6269933;28;20021;-65
2020/12/01 07:23:34;;;;;;;25.40;19.17;;;20.60;33.70;;;;;;6287914;28;20404;-62
2020/12/01 07:27:00;;;;;;;27.85;17.77;;;20.60;33.80;;;;;;6295044;28;20043;-68
2020/12/01 07:30:14;;;;;;;;;;;20.30;33.60;;;;;;6294810;28;20024;-65
2020/12/01 07:33:21;;;;;;;15.95;11.35;;;20.60;34.60;;;;;;6272381;28;20672;-65
2020/12/01 07:36:34;;;;;;;13.23;9.10;;;20.90;35.30;;;;;;6264183;28;20032;-65
2020/12/01 07:39:34;;;;;;;10.93;7.25;;;21.00;35.70;;;;;;6263743;28;20025;-64
2020/12/01 07:42:36;;;;;;;11.55;6.93;;;21.20;36.50;;;;;;6262957;28;20090;-64
2020/12/01 07:45:37;;;;;;;7.85;5.63;;;21.20;36.50;;;;;;6266325;28;20025;-64
2020/12/01 07:48:37;;;;;;;8.57;4.97;;;21.30;37.70;;;;;;6264713;28;20033;-65
2020/12/01 07:51:39;;;;;;;5.97;4.47;;;21.30;37.90;;;;;;6265551;28;20044;-65
2020/12/01 07:54:41;;;;;;;12.00;4.63;;;21.30;39.00;;;;;;6265337;28;20024;-65
2020/12/01 07:57:42;;;;;;;7.85;4.15;;;21.40;38.50;;;;;;6263354;28;20103;-65
2020/12/01 08:00:48;;;;;;;6.28;4.18;;;21.40;39.30;;;;;;6265500;28;20078;-65
2020/12/01 08:03:48;;;;;;;5.05;3.80;;;21.40;39.50;;;;;;6265606;28;20029;-64
2020/12/01 08:07:02;;;;;;;6.15;3.78;;;21.40;39.50;;;;;;6263429;28;20047;-64
2020/12/01 08:10:13;;;;;;;5.75;3.55;;;21.50;39.60;;;;;;6264890;28;20150;-65
2020/12/01 08:13:15;;;;;;;4.60;3.25;;;21.50;39.90;;;;;;6264246;28;20013;-65
2020/12/01 08:16:19;;;;;;;3.88;3.05;;;21.50;40.00;;;;;;6265373;28;20387;-64
2020/12/01 08:19:19;;;;;;;3.75;3.00;;;21.60;40.30;;;;;;6265642;28;20025;-66
2020/12/01 08:22:34;;;;;;;4.20;3.00;;;21.60;40.40;;;;;;6267429;28;20069;-66
2020/12/01 08:25:36;;;;;;;5.97;3.33;;;21.60;40.20;;;;;;6267487;28;20021;-66
2020/12/01 08:28:43;;;;;;;3.78;2.65;;;21.60;40.70;;;;;;6266294;28;20872;-65
2020/12/01 08:31:57;;;;;;;3.60;2.97;;;21.60;40.80;;;;;;6264302;28;20028;-66
2020/12/01 08:35:17;;;;;;;4.30;2.95;;;21.60;40.70;;;;;;6265390;28;20036;-65
2020/12/01 08:38:32;;;;;;;3.92;2.88;;;21.60;41.00;;;;;;6265272;28;20079;-65
2020/12/01 08:41:48;;;;;;;3.88;2.90;;;21.70;40.90;;;;;;6265364;28;20386;-65
2020/12/01 08:45:12;;;;;;;3.45;2.83;;;21.60;40.90;;;;;;6265981;28;20029;-65
2020/12/01 08:48:40;;;;;;;5.80;3.70;;;21.70;41.20;;;;;;6262494;28;20033;-64
2020/12/01 08:52:02;;;;;;;4.80;2.60;;;21.60;41.40;;;;;;6263341;28;20033;-65
2020/12/01 08:55:19;;;;;;;6.72;3.78;;;21.60;41.50;;;;;;6261463;28;20387;-63
2020/12/01 08:58:28;;;;;;;6.18;4.25;;;21.70;41.40;;;;;;6262710;28;20040;-64
2020/12/01 09:01:38;;;;;;;6.30;3.78;;;21.70;41.40;;;;;;6262456;28;20028;-63
2020/12/01 09:04:39;;;;;;;4.72;3.30;;;21.70;41.30;;;;;;6260752;28;20114;-64
2020/12/01 09:07:43;;;;;;;5.15;3.55;;;21.70;41.70;;;;;;6260920;28;20025;-63
2020/12/01 09:10:43;;;;;;;3.78;2.88;;;21.70;41.60;;;;;;6260047;28;20017;-64
2020/12/01 09:13:59;;;;;;;4.45;2.83;;;21.70;41.40;;;;;;6262938;28;20060;-65
2020/12/01 09:17:16;;;;;;;4.80;3.10;;;21.70;41.70;;;;;;6260121;28;20404;-64
2020/12/01 09:24:03;;;;;;;3.97;2.85;;;21.70;41.80;;;;;;6260219;28;20029;-64
2020/12/01 09:27:10;;;;;;;3.85;2.80;;;21.70;41.90;;;;;;6261805;28;20049;-64
2020/12/01 09:30:35;;;;;;;3.33;2.70;;;21.70;42.00;;;;;;6260131;28;20049;-64
2020/12/01 09:33:36;;;;;;;3.17;2.50;;;21.80;42.10;;;;;;6261704;28;20044;-63
2020/12/01 09:36:36;;;;;;;4.68;2.58;;;21.70;42.10;;;;;;6260806;28;20291;-62
2020/12/01 09:39:37;;;;;;;3.25;2.30;;;21.70;42.20;;;;;;6262540;28;20079;-60
2020/12/01 09:42:39;;;;;;;3.33;2.25;;;21.70;42.30;;;;;;6260649;28;20490;-62
2020/12/01 09:45:42;;;;;;;3.45;2.42;;;21.80;42.50;;;;;;6262426;28;20025;-63
2020/12/01 09:48:47;;;;;;;2.75;2.25;;;21.80;42.50;;;;;;6261207;28;20076;-62
2020/12/01 09:51:57;;;;;;;3.00;2.50;;;21.80;42.50;;;;;;6262714;28;20043;-64
2020/12/01 10:05:30;;;;;;;3.22;2.33;;;21.80;42.90;;;;;;6251878;28;20094;-64
2020/12/01 10:08:38;;;;;;;2.90;2.30;;;21.80;42.90;;;;;;6260483;28;20048;-64
2020/12/01 10:18:46;;;;;;;3.00;2.22;;;21.70;43.10;;;;;;6261814;28;20455;-61
2020/12/01 10:35:11;;;;;;;2.70;2.08;;;21.70;42.70;;;;;;6269718;28;20067;-63
2020/12/01 10:38:12;;;;;;;4.78;2.15;;;21.80;43.10;;;;;;6267238;28;20063;-63
2020/12/01 10:41:12;;;;;;;5.22;2.15;;;21.70;43.30;;;;;;6266258;28;20033;-63
2020/12/01 10:44:13;;;;;;;5.82;2.58;;;21.80;43.40;;;;;;6266633;28;20024;-62
2020/12/01 10:47:14;;;;;;;4.72;2.20;;;21.80;43.30;;;;;;6264594;28;20029;-62
2020/12/01 10:50:17;;;;;;;6.47;1.90;;;21.80;43.40;;;;;;6263154;28;20217;-63
2020/12/01 10:53:17;;;;;;;2.55;1.98;;;21.80;43.50;;;;;;6264237;28;20699;-61
2020/12/01 10:56:18;;;;;;;2.75;2.00;;;21.80;43.20;;;;;;6264551;28;20055;-64
2020/12/01 10:59:20;;;;;;;5.65;2.05;;;21.80;43.30;;;;;;6266023;28;20025;-62
2020/12/01 11:02:21;;;;;;;17.13;7.72;;;21.70;43.30;;;;;;6264390;28;20025;-62
2020/12/01 11:05:26;;;;;;;4.88;3.47;;;21.50;40.80;;;;;;6265814;28;20044;-64
2020/12/01 11:08:27;;;;;;;7.25;4.07;;;21.50;42.70;;;;;;6266279;28;20023;-63
2020/12/01 11:11:27;;;;;;;5.95;3.10;;;21.60;42.30;;;;;;6265124;28;20089;-63
2020/12/01 11:14:27;;;;;;;3.78;2.90;;;21.70;42.70;;;;;;6266766;28;20044;-63
2020/12/01 11:17:28;;;;;;;3.80;2.60;;;21.70;42.60;;;;;;6264485;28;20037;-64
2020/12/01 11:20:28;;;;;;;3.88;2.85;;;21.80;42.50;;;;;;6264494;28;20037;-63
2020/12/01 11:23:29;;;;;;;8.52;2.33;;;21.80;42.60;;;;;;6267028;28;20029;-64
2020/12/01 11:26:30;;;;;;;3.22;2.55;;;21.80;42.60;;;;;;6267724;28;20171;-64
2020/12/01 11:29:31;;;;;;;11.85;2.28;;;21.80;42.60;;;;;;6267170;28;20033;-65
2020/12/01 11:32:32;;;;;;;8.48;2.85;;;21.80;42.50;;;;;;6265593;28;20029;-66
2020/12/01 11:35:32;;;;;;;3.53;2.38;;;21.90;42.80;;;;;;6267038;28;20479;-65
2020/12/01 11:38:33;;;;;;;5.13;2.28;;;21.90;42.70;;;;;;6265787;28;20479;-65
2020/12/01 11:41:34;;;;;;;2.53;1.70;;;21.90;42.70;;;;;;6265909;28;20395;-65
2020/12/01 11:44:34;;;;;;;2.58;1.92;;;21.90;43.00;;;;;;6266406;28;20104;-65
2020/12/01 11:47:34;;;;;;;6.13;2.90;;;21.90;43.00;;;;;;6263764;28;20055;-64
2020/12/01 11:50:35;;;;;;;2.88;1.80;;;21.90;43.00;;;;;;6265224;28;20040;-66
2020/12/01 11:53:35;;;;;;;2.65;2.40;;;21.80;43.10;;;;;;6264307;28;20052;-65
2020/12/01 11:56:36;;;;;;;2.22;1.65;;;21.90;42.80;;;;;;6265753;28;20029;-64
2020/12/01 11:59:36;;;;;;;2.47;1.85;;;21.90;43.00;;;;;;6264620;28;20025;-63
2020/12/01 12:02:37;;;;;;;4.03;2.00;;;21.90;42.90;;;;;;6261141;28;20033;-63
2020/12/01 12:05:37;;;;;;;2.20;1.70;;;22.00;42.60;;;;;;6260612;28;20040;-59
2020/12/01 12:08:39;;;;;;;3.65;2.20;;;22.00;42.80;;;;;;6263638;28;20029;-59
2020/12/01 12:11:40;;;;;;;3.28;1.75;;;22.00;43.10;;;;;;6262990;28;20057;-61
2020/12/01 12:14:41;;;;;;;2.60;1.80;;;22.00;43.20;;;;;;6263346;28;20032;-65
2020/12/01 12:17:41;;;;;;;5.70;1.90;;;22.00;43.30;;;;;;6260194;28;20504;-62
2020/12/01 12:20:42;;;;;;;3.58;1.95;;;22.00;42.90;;;;;;6264905;28;20056;-61
2020/12/01 12:23:42;;;;;;;2.50;1.70;;;22.00;43.20;;;;;;6262162;28;20088;-63
2020/12/01 12:26:43;;;;;;;2.25;1.85;;;22.00;43.30;;;;;;6262303;28;20422;-61
2020/12/01 12:29:43;;;;;;;2.65;1.42;;;22.00;43.40;;;;;;6262258;28;20371;-62
2020/12/01 12:32:44;;;;;;;2.75;2.22;;;22.00;43.30;;;;;;6259936;28;20443;-61
2020/12/01 12:35:44;;;;;;;2.55;1.70;;;21.90;43.40;;;;;;6262257;28;20412;-61
2020/12/01 12:38:45;;;;;;;2.83;1.90;;;22.00;43.50;;;;;;6264179;28;20395;-62
2020/12/01 12:41:45;;;;;;;1.83;1.58;;;22.00;43.40;;;;;;6262286;28;20116;-59
2020/12/01 12:44:46;;;;;;;7.10;1.73;;;22.00;43.50;;;;;;6263925;28;20048;-57
2020/12/01 12:47:46;;;;;;;5.50;1.70;;;22.00;43.60;;;;;;6263231;28;20104;-59
2020/12/01 12:50:47;;;;;;;2.72;1.83;;;22.00;43.60;;;;;;6260621;28;20025;-63
2020/12/01 12:53:47;;;;;;;4.72;1.63;;;22.00;43.40;;;;;;6263069;28;20048;-62
2020/12/01 12:56:48;;;;;;;3.75;1.85;;;22.00;43.20;;;;;;6266351;28;20032;-61
2020/12/01 12:59:48;;;;;;;4.47;1.60;;;22.00;43.20;;;;;;6265636;28;20048;-58
2020/12/01 13:02:49;;;;;;;3.45;1.80;;;22.00;43.30;;;;;;6264752;28;20119;-62
2020/12/01 13:05:49;;;;;;;2.28;1.50;;;22.00;43.30;;;;;;6264336;28;20032;-64
2020/12/01 13:08:50;;;;;;;2.67;1.70;;;22.00;43.30;;;;;;6264757;28;20364;-63
2020/12/01 13:11:51;;;;;;;2.58;1.70;;;22.00;43.30;;;;;;6260649;28;20468;-64
2020/12/01 13:14:51;;;;;;;2.05;1.60;;;22.00;43.70;;;;;;6261063;28;20051;-57
2020/12/01 13:17:52;;;;;;;5.22;1.63;;;22.00;43.30;;;;;;6262897;28;20037;-61
2020/12/01 13:20:52;;;;;;;3.28;1.75;;;22.00;43.40;;;;;;6265070;28;20033;-62
2020/12/01 13:23:53;;;;;;;3.70;1.85;;;21.90;43.30;;;;;;6262784;28;20502;-61
2020/12/01 13:26:53;;;;;;;3.13;1.80;;;22.00;43.50;;;;;;6264835;28;20095;-61
2020/12/01 13:29:54;;;;;;;3.97;1.77;;;21.90;43.40;;;;;;6263422;28;20029;-64
2020/12/01 13:32:54;;;;;;;2.95;1.85;;;22.00;43.50;;;;;;6264360;28;20439;-59
2020/12/01 13:35:55;;;;;;;1.98;1.50;;;22.00;43.50;;;;;;6265559;28;20446;-61
2020/12/01 13:38:56;;;;;;;3.65;1.73;;;22.00;43.60;;;;;;6265416;28;20087;-61
2020/12/01 13:41:56;;;;;;;2.70;1.27;;;22.00;43.50;;;;;;6264597;28;20037;-59
2020/12/01 13:44:56;;;;;;;2.38;1.40;;;22.00;43.60;;;;;;6261781;28;20372;-62
2020/12/01 13:47:57;;;;;;;6.38;1.33;;;22.00;43.60;;;;;;6265686;28;20031;-61
2020/12/01 13:50:58;;;;;;;2.38;1.38;;;22.00;43.90;;;;;;6264388;28;20025;-59
2020/12/01 13:53:59;;;;;;;4.13;1.58;;;22.00;43.90;;;;;;6265934;28;20024;-61
2020/12/01 13:56:59;;;;;;;2.97;1.60;;;22.00;43.80;;;;;;6264007;28;20041;-58
2020/12/01 14:00:00;;;;;;;2.22;1.60;;;22.00;43.80;;;;;;6264840;28;20681;-57
2020/12/01 14:03:02;;;;;;;2.83;1.80;;;22.00;43.60;;;;;;6269099;28;20427;-53
2020/12/01 14:06:02;;;;;;;4.53;1.85;;;22.00;43.70;;;;;;6267280;28;20029;-58
2020/12/01 14:09:04;;;;;;;10.18;1.52;;;22.00;43.80;;;;;;6270051;28;20036;-56
2020/12/01 14:12:04;;;;;;;3.63;1.55;;;22.00;43.80;;;;;;6266492;28;20021;-57
2020/12/01 14:15:06;;;;;;;2.83;1.40;;;22.00;43.80;;;;;;6269973;28;20045;-60
2020/12/01 14:18:07;;;;;;;2.80;1.65;;;22.00;43.90;;;;;;6268040;28;20633;-57
2020/12/01 14:21:09;;;;;;;2.35;1.50;;;22.00;44.00;;;;;;6266601;28;20063;-61
2020/12/01 14:24:10;;;;;;;3.53;1.40;;;22.00;44.20;;;;;;6269298;28;20680;-57
2020/12/01 14:27:11;;;;;;;1.83;1.50;;;22.00;43.90;;;;;;6267524;28;20063;-60
2020/12/01 14:30:15;;;;;;;3.55;1.60;;;21.90;44.60;;;;;;6261586;28;20541;-60
2020/12/01 14:33:16;;;;;;;2.88;1.52;;;22.00;44.10;;;;;;6265208;28;20555;-60
2020/12/01 14:36:21;;;;;;;2.10;1.40;;;21.90;43.90;;;;;;6265626;28;20036;-58
2020/12/01 14:39:22;;;;;;;;;;;21.90;43.90;;;;;;6269983;28;20115;-59
2020/12/01 14:42:23;;;;;;;1.60;1.25;;;21.90;43.90;;;;;;6266954;28;19908;-61
2020/12/01 14:45:24;;;;;;;4.72;1.85;;;22.00;44.20;;;;;;6265055;28;20066;-58
2020/12/01 14:48:42;;;;;;;2.08;1.35;;;22.00;44.00;;;;;;6268264;28;20035;-64
2020/12/01 14:52:16;;;;;;;2.03;1.48;;;22.00;43.90;;;;;;6265335;28;20021;-61
2020/12/01 14:55:49;;;;;;;1.67;1.20;;;22.00;44.00;;;;;;6266663;28;20053;-59
2020/12/01 14:59:18;;;;;;;2.17;1.58;;;22.00;44.30;;;;;;6268131;28;20036;-58
2020/12/01 15:03:07;;;;;;;4.78;1.40;;;22.00;44.00;;;;;;6267603;28;20028;-62
2020/12/01 15:06:48;;;;;;;2.20;1.40;;;22.00;44.10;;;;;;6249824;28;20134;-58
2020/12/01 15:10:09;;;;;;;5.45;1.40;;;22.00;44.10;;;;;;6268753;28;20052;-58
2020/12/01 15:13:10;;;;;;;5.45;1.60;;;22.00;44.40;;;;;;6266719;28;20040;-63
2020/12/01 15:16:18;;;;;;;3.47;1.73;;;22.10;44.50;;;;;;6267188;28;20033;-61
2020/12/01 15:19:19;;;;;;;7.43;1.77;;;22.10;44.80;;;;;;6267353;28;20032;-58
2020/12/01 15:22:30;;;;;;;4.43;1.73;;;22.10;44.40;;;;;;6268191;28;20099;-60
2020/12/01 15:25:32;;;;;;;3.05;2.00;;;22.10;44.10;;;;;;6268181;28;20031;-63
2020/12/01 15:28:37;;;;;;;3.67;2.08;;;22.10;44.30;;;;;;6267880;28;20029;-64
2020/12/01 15:31:37;;;;;;;11.85;2.05;;;22.20;44.10;;;;;;6268274;28;20021;-62
2020/12/01 15:34:38;;;;;;;10.73;1.63;;;22.20;43.60;;;;;;6267405;28;20075;-63
2020/12/01 15:37:39;;;;;;;9.00;1.92;;;22.20;43.40;;;;;;6269351;28;20448;-62
2020/12/01 15:40:47;;;;;;;3.13;1.40;;;22.20;43.50;;;;;;6267900;28;20021;-62
2020/12/01 15:43:54;;;;;;;6.50;1.80;;;22.10;44.20;;;;;;6274084;28;20104;-64
2020/12/01 15:47:01;;;;;;;8.98;1.98;;;22.10;43.90;;;;;;6289837;28;20029;-65
2020/12/01 15:50:04;;;;;;;3.55;1.67;;;22.20;43.60;;;;;;6277474;28;20017;-64
2020/12/01 15:53:49;;;;;;;6.07;1.70;;;22.20;43.60;;;;;;6261518;28;20025;-63
2020/12/01 15:56:52;;;;;;;3.08;1.67;;;22.10;43.60;;;;;;6264457;28;20052;-63
2020/12/01 16:00:25;;;;;;;2.83;1.40;;;22.10;43.70;;;;;;6265651;28;20104;-61
2020/12/01 16:03:53;;;;;;;2.40;1.67;;;22.10;43.70;;;;;;6264481;28;20024;-64
2020/12/01 16:07:12;;;;;;;5.70;2.03;;;22.20;43.60;;;;;;6265172;28;20392;-63
2020/12/01 16:10:23;;;;;;;3.30;1.95;;;22.20;43.60;;;;;;6265158;28;20029;-63
2020/12/01 16:13:32;;;;;;;5.72;1.73;;;22.20;43.50;;;;;;6266841;28;20396;-63
2020/12/01 16:16:36;;;;;;;2.60;1.67;;;22.20;43.60;;;;;;6266034;28;20029;-62
2020/12/01 16:19:45;;;;;;;6.38;1.58;;;22.20;43.60;;;;;;6267481;28;20403;-64
2020/12/01 16:22:45;;;;;;;2.00;1.52;;;22.20;43.60;;;;;;6265883;28;20493;-63
2020/12/01 16:25:46;;;;;;;2.58;1.70;;;22.20;43.70;;;;;;6266693;28;20035;-61
2020/12/01 16:28:47;;;;;;;2.00;1.38;;;22.20;43.60;;;;;;6266670;28;20081;-61
2020/12/01 16:31:48;;;;;;;2.08;1.20;;;22.20;43.70;;;;;;6267403;28;20021;-61
2020/12/01 16:34:49;;;;;;;1.92;1.60;;;22.20;43.70;;;;;;6265090;28;20036;-66
2020/12/01 16:37:56;;;;;;;1.48;1.38;;;22.20;43.70;;;;;;6263765;28;20039;-65